createdAt,value
2023-06-28T00:01:38.485Z,92.10
2023-06-28T00:06:41.769Z,92.39
2023-06-28T00:11:45.102Z,92.25
2023-06-28T00:16:46.821Z,92.05
2023-06-28T00:21:50.416Z,92.59
2023-06-28T00:26:52.241Z,91.72
2023-06-28T00:31:54.033Z,91.50
2023-06-28T00:36:57.148Z,91.75
2023-06-28T00:41:58.865Z,92.03
2023-06-28T00:47:00.679Z,92.25
2023-06-28T00:52:04.338Z,91.69
2023-06-28T00:57:07.150Z,91.00
2023-06-28T01:02:08.925Z,90.34
2023-06-28T01:07:12.586Z,90.11
2023-06-28T01:12:14.349Z,89.80
2023-06-28T01:17:16.095Z,89.11
2023-06-28T01:22:19.247Z,89.23
2023-06-28T01:27:22.337Z,89.39
2023-06-28T01:32:25.058Z,89.43
2023-06-28T01:37:26.965Z,89.66
2023-06-28T01:42:30.032Z,89.70
2023-06-28T01:47:31.957Z,89.87
2023-06-28T01:52:34.236Z,89.79
2023-06-28T01:57:37.395Z,89.71
2023-06-28T02:02:39.195Z,89.82
2023-06-28T02:07:41.028Z,90.34
2023-06-28T02:12:45.928Z,90.36
2023-06-28T02:17:49.053Z,90.62
2023-06-28T02:22:50.873Z,91.18
2023-06-28T02:27:54.613Z,91.29
2023-06-28T02:32:56.406Z,91.11
2023-06-28T02:37:58.204Z,90.50
2023-06-28T02:43:01.374Z,90.80
2023-06-28T02:48:03.998Z,90.51
2023-06-28T02:53:05.883Z,90.88
2023-06-28T02:58:09.141Z,91.16
2023-06-28T03:03:11.442Z,90.99
2023-06-28T03:08:16.787Z,91.11
2023-06-28T03:13:20.028Z,91.17
2023-06-28T03:18:21.889Z,91.57
2023-06-28T03:23:23.689Z,91.69
2023-06-28T03:28:26.993Z,92.39
2023-06-28T03:33:28.791Z,92.84
2023-06-28T03:38:30.569Z,92.69
2023-06-28T03:43:33.736Z,93.46
2023-06-28T03:48:35.880Z,94.35
2023-06-28T03:53:38.917Z,95.23
2023-06-28T03:58:42.069Z,95.72
2023-06-28T04:03:44.357Z,95.68
2023-06-28T04:08:47.544Z,95.85
2023-06-28T04:13:50.650Z,96.18
2023-06-28T04:18:53.861Z,96.09
2023-06-28T04:23:55.605Z,96.65
2023-06-28T04:28:58.731Z,97.43
2023-06-28T04:34:00.820Z,97.73
2023-06-28T04:39:04.675Z,98.07
2023-06-28T04:44:10.747Z,98.45
2023-06-28T04:49:12.471Z,98.40
2023-06-28T04:54:14.478Z,98.65
2023-06-28T04:59:17.603Z,99.09
2023-06-28T05:04:19.445Z,98.88
2023-06-28T05:09:21.155Z,99.03
2023-06-28T05:14:24.290Z,99.02
2023-06-28T05:19:26.240Z,99.83
2023-06-28T05:24:27.958Z,100.00
2023-06-28T05:29:32.356Z,100.00
2023-06-28T05:34:34.762Z,99.79
2023-06-28T05:39:36.506Z,99.82
2023-06-28T05:44:39.550Z,99.80
2023-06-28T05:49:43.192Z,98.68
2023-06-28T05:54:44.938Z,99.17
2023-06-28T05:59:48.041Z,97.98
2023-06-28T06:04:49.803Z,98.34
2023-06-28T06:09:51.535Z,97.79
2023-06-28T06:14:57.843Z,96.15
2023-06-28T06:19:59.631Z,95.85
2023-06-28T06:25:01.693Z,95.20
2023-06-28T06:30:06.517Z,95.30
2023-06-28T06:35:09.066Z,95.20
2023-06-28T06:40:10.858Z,95.44
2023-06-28T06:45:18.263Z,93.85
2023-06-28T06:50:20.057Z,93.58
2023-06-28T06:55:21.771Z,93.74
2023-06-28T07:00:24.954Z,92.99
2023-06-28T07:05:26.722Z,92.47
2023-06-28T07:10:28.550Z,91.45
2023-06-28T07:15:31.618Z,91.22
2023-06-28T07:20:33.452Z,88.86
2023-06-28T07:25:35.577Z,88.13
2023-06-28T07:30:54.531Z,85.60
2023-06-28T07:35:56.298Z,87.82
2023-06-28T07:40:58.042Z,86.00
2023-06-28T07:46:02.094Z,82.02
2023-06-28T07:51:06.680Z,86.23
2023-06-28T07:56:08.467Z,81.35
2023-06-28T08:01:11.685Z,78.97
2023-06-28T08:06:13.507Z,78.23
2023-06-28T08:11:15.226Z,73.56
2023-06-28T08:16:18.669Z,72.90
2023-06-28T08:21:20.444Z,71.80
2023-06-28T08:26:22.230Z,66.51
2023-06-28T08:31:25.366Z,67.83
2023-06-28T08:36:28.865Z,61.19
2023-06-28T08:41:31.747Z,62.02
2023-06-28T08:46:34.867Z,59.72
2023-06-28T08:51:37.728Z,61.29
2023-06-28T08:56:48.253Z,57.48
2023-06-28T09:01:57.351Z,55.45
2023-06-28T09:06:59.260Z,58.57
2023-06-28T09:12:01.093Z,56.00
2023-06-28T09:17:04.482Z,53.41
2023-06-28T09:22:06.361Z,55.92
2023-06-28T09:27:08.547Z,54.78
2023-06-28T09:32:11.897Z,53.81
2023-06-28T09:37:13.673Z,53.75
2023-06-28T09:42:15.418Z,50.27
2023-06-28T09:47:18.490Z,50.63
2023-06-28T09:52:20.221Z,49.30
2023-06-28T09:57:21.955Z,52.90
2023-06-28T10:02:25.129Z,49.44
2023-06-28T10:07:26.928Z,47.33
2023-06-28T10:12:28.703Z,46.34
2023-06-28T10:17:35.222Z,46.90
2023-06-28T10:22:36.964Z,49.85
2023-06-28T10:27:39.101Z,49.08
2023-06-28T10:32:42.942Z,47.38
2023-06-28T10:37:44.722Z,46.38
2023-06-28T10:42:46.615Z,46.50
2023-06-28T10:47:55.295Z,46.91
2023-06-28T10:52:57.709Z,48.02
2023-06-28T10:58:06.506Z,48.95
2023-06-28T11:03:09.708Z,50.79
2023-06-28T11:08:12.094Z,51.32
2023-06-28T11:13:14.559Z,48.14
2023-06-28T11:18:19.929Z,47.45
2023-06-28T11:23:25.760Z,46.23
2023-06-28T11:28:29.550Z,45.69
2023-06-28T11:33:33.032Z,44.69
2023-06-28T11:38:34.939Z,43.95
2023-06-28T11:43:36.652Z,45.98
2023-06-28T11:48:39.745Z,46.48
2023-06-28T11:53:41.487Z,46.86
2023-06-28T11:58:43.239Z,44.69
2023-06-28T12:03:46.359Z,43.57
2023-06-28T12:08:48.170Z,44.66
2023-06-28T12:13:49.908Z,44.86
2023-06-28T12:19:00.063Z,45.26
2023-06-28T12:24:14.937Z,46.58
2023-06-28T12:29:18.287Z,46.12
2023-06-28T12:34:24.930Z,46.47
2023-06-28T12:39:27.808Z,45.64
2023-06-28T12:44:29.723Z,45.47
2023-06-28T12:49:38.948Z,44.17
2023-06-28T12:54:40.672Z,45.16
2023-06-28T12:59:42.544Z,44.74
2023-06-28T13:04:45.676Z,44.70
2023-06-28T13:09:47.461Z,45.05
2023-06-28T13:14:49.169Z,45.94
2023-06-28T13:19:52.817Z,46.93
2023-06-28T13:24:54.736Z,44.70
2023-06-28T13:29:56.506Z,46.46
2023-06-28T13:34:59.647Z,47.39
2023-06-28T13:40:03.527Z,44.31
2023-06-28T13:45:06.936Z,44.50
2023-06-28T13:50:10.680Z,45.00
2023-06-28T13:55:12.466Z,44.69
2023-06-28T14:00:14.877Z,44.20
2023-06-28T14:05:19.303Z,45.56
2023-06-28T14:10:22.734Z,44.45
2023-06-28T14:15:24.526Z,45.92
2023-06-28T14:20:27.722Z,46.57
2023-06-28T14:25:29.464Z,47.55
2023-06-28T14:30:31.293Z,48.84
2023-06-28T14:35:34.398Z,49.07
2023-06-28T14:40:36.120Z,48.63
2023-06-28T14:45:37.942Z,49.99
2023-06-28T14:50:41.065Z,50.75
2023-06-28T14:55:43.156Z,49.08
2023-06-28T15:00:45.666Z,48.12
2023-06-28T15:05:49.361Z,49.82
2023-06-28T15:10:51.079Z,49.48
2023-06-28T15:15:52.935Z,48.43
2023-06-28T15:20:56.137Z,49.05
2023-06-28T15:25:58.202Z,49.13
2023-06-28T15:30:59.993Z,48.64
2023-06-28T15:36:03.134Z,48.84
2023-06-28T15:41:04.830Z,49.78
2023-06-28T15:46:06.615Z,49.67
2023-06-28T15:51:09.681Z,48.06
2023-06-28T15:56:11.392Z,49.55
2023-06-28T16:01:14.509Z,49.67
2023-06-28T16:06:17.639Z,50.95
2023-06-28T16:11:19.420Z,51.66
2023-06-28T16:16:21.188Z,51.02
2023-06-28T16:21:24.307Z,50.32
2023-06-28T16:26:26.021Z,53.89
2023-06-28T16:31:29.892Z,53.58
2023-06-28T16:36:33.162Z,54.12
2023-06-28T16:41:34.967Z,54.59
2023-06-28T16:46:36.865Z,54.47
2023-06-28T16:51:39.933Z,54.08
2023-06-28T16:56:41.683Z,55.78
2023-06-28T17:01:43.411Z,56.56
2023-06-28T17:06:46.479Z,56.08
2023-06-28T17:11:48.369Z,56.34
2023-06-28T17:16:50.075Z,55.73
2023-06-28T17:21:53.178Z,56.21
2023-06-28T17:26:58.474Z,56.96
2023-06-28T17:32:00.522Z,56.88
2023-06-28T17:37:04.094Z,57.10
2023-06-28T17:42:06.392Z,56.85
2023-06-28T17:47:08.601Z,57.75
2023-06-28T17:52:11.864Z,56.02
2023-06-28T17:57:13.624Z,57.08
2023-06-28T18:02:17.601Z,56.49
2023-06-28T18:07:21.528Z,57.24
2023-06-28T18:12:24.014Z,58.07
2023-06-28T18:17:25.833Z,57.49
2023-06-28T18:22:28.976Z,58.28
2023-06-28T18:27:30.784Z,58.41
2023-06-28T18:32:32.571Z,58.30
2023-06-28T18:37:35.771Z,58.55
2023-06-28T18:42:37.524Z,60.81
2023-06-28T18:47:39.393Z,61.10
2023-06-28T18:52:42.533Z,60.40
2023-06-28T18:57:44.247Z,60.34
2023-06-28T19:02:46.020Z,61.02
2023-06-28T19:07:49.121Z,61.61
2023-06-28T19:12:50.922Z,61.88
2023-06-28T19:17:54.042Z,62.35
2023-06-28T19:22:57.173Z,62.89
2023-06-28T19:27:59.048Z,62.51
2023-06-28T19:33:00.825Z,64.25
2023-06-28T19:38:04.330Z,66.84
2023-06-28T19:43:06.104Z,66.87
2023-06-28T19:48:07.892Z,66.44
2023-06-28T19:53:11.804Z,68.25
2023-06-28T19:58:13.778Z,68.38
2023-06-28T20:03:15.620Z,68.70
2023-06-28T20:08:18.804Z,70.66
2023-06-28T20:13:20.904Z,71.53
2023-06-28T20:18:22.741Z,72.75
2023-06-28T20:23:25.949Z,73.92
2023-06-28T20:28:27.720Z,75.47
2023-06-28T20:33:29.484Z,75.89
2023-06-28T20:38:33.142Z,76.98
2023-06-28T20:43:38.375Z,76.96
2023-06-28T20:48:42.212Z,74.96
2023-06-28T20:53:47.695Z,74.95
2023-06-28T20:58:51.488Z,75.35
2023-06-28T21:03:55.123Z,76.02
2023-06-28T21:09:00.135Z,77.12
2023-06-28T21:14:03.116Z,77.84
2023-06-28T21:19:04.906Z,79.09
2023-06-28T21:24:08.390Z,79.47
2023-06-28T21:29:10.212Z,79.10
2023-06-28T21:34:11.967Z,78.58
2023-06-28T21:39:15.080Z,80.08
2023-06-28T21:44:16.899Z,79.39
2023-06-28T21:49:18.651Z,81.44
2023-06-28T21:54:21.829Z,81.69
2023-06-28T21:59:26.639Z,82.28
2023-06-28T22:04:28.468Z,80.78
2023-06-28T22:09:31.717Z,80.13
2023-06-28T22:14:33.631Z,81.72
2023-06-28T22:19:36.303Z,83.29
2023-06-28T22:24:39.489Z,84.21
2023-06-28T22:29:41.254Z,84.77
2023-06-28T22:34:43.051Z,83.14
2023-06-28T22:39:46.363Z,83.83
2023-06-28T22:44:48.285Z,84.82
2023-06-28T22:49:50.047Z,84.59
2023-06-28T22:54:54.065Z,83.65
2023-06-28T22:59:55.809Z,83.66
2023-06-28T23:04:57.656Z,82.54
2023-06-28T23:10:00.959Z,81.52
2023-06-28T23:15:02.783Z,81.92
2023-06-28T23:20:06.664Z,83.16
2023-06-28T23:25:14.228Z,82.18
2023-06-28T23:30:17.361Z,81.34
2023-06-28T23:35:19.177Z,80.76
2023-06-28T23:40:22.429Z,81.54
2023-06-28T23:45:24.330Z,80.68
2023-06-28T23:50:27.233Z,80.75
2023-06-28T23:55:30.467Z,80.71
